createdAt,value
2019-04-30T00:02:01.208Z,96.90
2019-04-30T00:04:42.376Z,96.90
2019-04-30T00:07:19.056Z,96.70
2019-04-30T00:09:53.947Z,96.70
2019-04-30T00:12:31.000Z,96.60
2019-04-30T00:15:06.212Z,96.90
2019-04-30T00:17:40.443Z,97.00
2019-04-30T00:20:15.088Z,96.80
2019-04-30T00:22:50.794Z,96.80
2019-04-30T00:25:28.612Z,96.80
2019-04-30T00:28:07.657Z,96.90
2019-04-30T00:30:39.333Z,97.00
2019-04-30T00:33:21.659Z,97.10
2019-04-30T00:35:55.212Z,97.00
2019-04-30T00:38:29.532Z,97.10
2019-04-30T00:41:08.561Z,97.30
2019-04-30T00:43:46.412Z,97.30
2019-04-30T00:46:17.244Z,97.30
2019-04-30T00:48:51.107Z,97.40
2019-04-30T00:51:26.190Z,97.60
2019-04-30T00:53:59.597Z,97.60
2019-04-30T00:56:35.370Z,97.50
2019-04-30T00:59:10.664Z,97.70
2019-04-30T01:02:27.912Z,97.70
2019-04-30T01:05:05.062Z,97.70
2019-04-30T01:07:33.311Z,97.80
2019-04-30T01:10:11.297Z,97.80
2019-04-30T01:12:49.063Z,97.90
2019-04-30T01:15:21.905Z,98.00
2019-04-30T01:17:56.170Z,97.90
2019-04-30T01:20:32.850Z,97.90
2019-04-30T01:23:08.013Z,98.10
2019-04-30T01:25:43.147Z,98.10
2019-04-30T01:28:23.114Z,98.30
2019-04-30T01:30:58.683Z,98.30
2019-04-30T01:33:34.720Z,98.60
2019-04-30T01:36:13.234Z,98.40
2019-04-30T01:38:44.850Z,98.60
2019-04-30T01:41:20.271Z,98.60
2019-04-30T01:43:55.631Z,98.60
2019-04-30T01:46:30.119Z,98.60
2019-04-30T01:49:03.588Z,98.50
2019-04-30T01:51:38.663Z,98.50
2019-04-30T01:54:13.696Z,98.60
2019-04-30T01:57:10.882Z,98.50
2019-04-30T02:00:03.222Z,98.60
2019-04-30T02:02:41.559Z,98.70
2019-04-30T02:05:18.763Z,98.70
2019-04-30T02:07:52.855Z,98.70
2019-04-30T02:10:28.540Z,98.80
2019-04-30T02:13:02.498Z,98.80
2019-04-30T02:15:36.506Z,98.90
2019-04-30T02:18:09.860Z,98.90
2019-04-30T02:20:43.606Z,98.90
2019-04-30T02:23:19.411Z,99.00
2019-04-30T02:25:52.423Z,99.00
2019-04-30T02:28:26.435Z,99.10
2019-04-30T02:31:00.686Z,99.20
2019-04-30T02:33:36.951Z,99.20
2019-04-30T02:36:30.025Z,99.30
2019-04-30T02:39:04.705Z,99.30
2019-04-30T02:41:41.340Z,99.30
2019-04-30T02:44:19.602Z,99.40
2019-04-30T02:46:56.149Z,99.30
2019-04-30T02:49:32.203Z,99.40
2019-04-30T02:52:09.242Z,99.30
2019-04-30T02:54:45.793Z,99.30
2019-04-30T02:57:22.868Z,99.30
2019-04-30T03:00:20.744Z,99.30
2019-04-30T03:02:55.974Z,99.30
2019-04-30T03:05:31.086Z,99.30
2019-04-30T03:08:06.233Z,99.40
2019-04-30T03:10:41.795Z,99.30
2019-04-30T03:13:19.953Z,99.40
2019-04-30T03:15:52.602Z,99.50
2019-04-30T03:18:31.327Z,99.70
2019-04-30T03:21:12.311Z,99.80
2019-04-30T03:23:46.848Z,99.90
2019-04-30T03:26:21.732Z,99.90
2019-04-30T03:28:56.071Z,99.90
2019-04-30T03:31:32.433Z,99.90
2019-04-30T03:34:12.421Z,99.90
2019-04-30T03:36:43.620Z,99.90
2019-04-30T03:39:19.945Z,99.90
2019-04-30T03:41:53.710Z,99.90
2019-04-30T03:44:32.381Z,99.90
2019-04-30T03:47:06.850Z,99.90
2019-04-30T03:49:41.022Z,99.90
2019-04-30T03:52:14.439Z,99.90
2019-04-30T03:54:49.440Z,99.90
2019-04-30T03:57:23.577Z,99.90
2019-04-30T03:59:59.283Z,99.90
2019-04-30T04:02:44.569Z,99.90
2019-04-30T04:05:52.917Z,99.90
2019-04-30T04:08:39.088Z,99.90
2019-04-30T04:11:20.368Z,99.90
2019-04-30T04:13:54.302Z,99.90
2019-04-30T04:16:29.357Z,99.90
2019-04-30T04:19:02.708Z,99.90
2019-04-30T04:21:41.437Z,99.90
2019-04-30T04:24:15.345Z,99.90
2019-04-30T04:26:50.502Z,99.90
2019-04-30T04:29:23.937Z,99.90
2019-04-30T04:32:00.731Z,99.90
2019-04-30T04:34:33.567Z,99.90
2019-04-30T04:37:10.096Z,99.90
2019-04-30T04:39:43.002Z,99.90
2019-04-30T04:42:19.108Z,99.90
2019-04-30T04:44:52.586Z,99.90
2019-04-30T04:47:26.174Z,99.90
2019-04-30T04:50:00.784Z,99.90
2019-04-30T04:52:34.595Z,99.90
2019-04-30T04:55:09.787Z,99.90
2019-04-30T04:57:43.314Z,99.90
2019-04-30T05:00:22.861Z,99.90
2019-04-30T05:03:06.002Z,99.90
2019-04-30T05:05:49.945Z,99.90
2019-04-30T05:08:28.560Z,99.90
2019-04-30T05:11:04.212Z,99.90
2019-04-30T05:13:39.869Z,99.90
2019-04-30T05:16:18.907Z,99.90
2019-04-30T05:19:01.163Z,99.90
2019-04-30T05:21:42.697Z,99.90
2019-04-30T05:24:14.511Z,99.90
2019-04-30T05:26:48.776Z,99.90
2019-04-30T05:29:22.260Z,99.90
2019-04-30T05:31:58.608Z,99.90
2019-04-30T05:34:32.309Z,99.90
2019-04-30T05:37:11.339Z,99.90
2019-04-30T05:39:48.941Z,99.40
2019-04-30T05:42:30.964Z,99.50
2019-04-30T05:45:04.829Z,99.40
2019-04-30T05:47:42.809Z,99.50
2019-04-30T05:50:19.771Z,98.70
2019-04-30T05:52:59.249Z,98.30
2019-04-30T05:55:32.746Z,97.90
2019-04-30T05:58:06.160Z,97.60
2019-04-30T06:00:40.294Z,97.30
2019-04-30T06:03:24.685Z,97.30
2019-04-30T06:06:04.943Z,96.90
2019-04-30T06:08:49.083Z,97.00
2019-04-30T06:11:40.403Z,96.70
2019-04-30T06:14:48.014Z,96.80
2019-04-30T06:17:13.565Z,96.30
2019-04-30T06:19:48.783Z,96.00
2019-04-30T06:22:31.252Z,95.50
2019-04-30T06:25:57.528Z,95.30
2019-04-30T06:28:34.766Z,95.30
2019-04-30T06:31:14.927Z,95.80
2019-04-30T06:33:54.825Z,95.30
2019-04-30T06:36:30.334Z,94.20
2019-04-30T06:39:02.975Z,93.80
2019-04-30T06:41:36.622Z,91.80
2019-04-30T06:44:09.708Z,91.30
2019-04-30T06:46:42.097Z,91.40
2019-04-30T06:49:15.273Z,90.30
2019-04-30T06:51:49.071Z,89.70
2019-04-30T06:54:22.474Z,88.70
2019-04-30T06:56:55.452Z,88.90
2019-04-30T06:59:29.857Z,88.50
2019-04-30T07:02:01.760Z,86.40
2019-04-30T07:04:33.667Z,84.50
2019-04-30T07:07:05.593Z,84.80
2019-04-30T07:09:58.640Z,85.30
2019-04-30T07:12:50.482Z,84.40
2019-04-30T07:15:23.376Z,84.80
2019-04-30T07:17:55.428Z,85.30
2019-04-30T07:20:29.149Z,85.30
2019-04-30T07:23:03.256Z,85.40
2019-04-30T07:25:35.989Z,84.80
2019-04-30T07:28:09.037Z,84.60
2019-04-30T07:30:42.236Z,83.30
2019-04-30T07:33:15.808Z,83.10
2019-04-30T07:35:49.855Z,82.90
2019-04-30T07:38:22.582Z,82.80
2019-04-30T07:40:59.128Z,82.30
2019-04-30T07:43:35.699Z,82.30
2019-04-30T07:46:12.923Z,81.60
2019-04-30T07:48:50.406Z,82.20
2019-04-30T07:51:23.710Z,81.90
2019-04-30T07:53:59.122Z,82.30
2019-04-30T07:59:11.312Z,82.90
2019-04-30T08:02:00.233Z,83.40
2019-04-30T08:04:36.124Z,82.70
2019-04-30T08:07:09.695Z,83.40
2019-04-30T08:09:38.340Z,82.90
2019-04-30T08:09:42.567Z,83.20
2019-04-30T08:12:22.282Z,82.80
2019-04-30T08:14:52.607Z,81.80
2019-04-30T08:17:30.528Z,81.50
2019-04-30T08:20:03.419Z,81.70
2019-04-30T08:22:35.955Z,82.00
2019-04-30T08:25:09.736Z,80.90
2019-04-30T08:27:43.625Z,80.50
2019-04-30T08:30:25.500Z,80.70
2019-04-30T08:32:53.438Z,81.50
2019-04-30T08:35:25.810Z,82.10
2019-04-30T08:38:00.739Z,81.90
2019-04-30T08:40:33.463Z,81.00
2019-04-30T08:43:05.411Z,80.70
2019-04-30T08:45:40.152Z,80.70
2019-04-30T08:48:12.699Z,82.10
2019-04-30T08:50:45.422Z,81.80
2019-04-30T08:53:29.531Z,81.10
2019-04-30T08:55:55.156Z,80.40
2019-04-30T08:58:34.618Z,80.60
2019-04-30T09:01:08.750Z,81.20
2019-04-30T09:03:45.114Z,80.80
2019-04-30T09:06:25.428Z,79.50
2019-04-30T09:09:18.883Z,79.20
2019-04-30T09:11:55.805Z,79.60
2019-04-30T09:14:35.213Z,80.60
2019-04-30T09:17:09.238Z,79.60
2019-04-30T09:19:43.805Z,79.50
2019-04-30T09:22:16.369Z,78.40
2019-04-30T09:24:49.724Z,77.10
2019-04-30T09:27:29.416Z,74.30
2019-04-30T09:30:01.747Z,73.20
2019-04-30T09:32:33.654Z,72.40
2019-04-30T09:35:05.410Z,72.70
2019-04-30T09:37:39.076Z,71.20
2019-04-30T09:40:18.284Z,70.30
2019-04-30T09:42:44.765Z,70.60
2019-04-30T09:45:15.966Z,70.40
2019-04-30T09:47:47.387Z,70.10
2019-04-30T09:50:18.966Z,70.00
2019-04-30T09:53:00.598Z,69.80
2019-04-30T09:55:32.381Z,70.00
2019-04-30T09:58:16.203Z,69.20
2019-04-30T10:00:39.355Z,69.40
2019-04-30T10:03:11.508Z,70.00
2019-04-30T10:05:45.709Z,69.30
2019-04-30T10:08:18.903Z,68.20
2019-04-30T10:11:06.118Z,68.50
2019-04-30T10:13:38.083Z,67.90
2019-04-30T10:16:29.618Z,67.20
2019-04-30T10:19:02.196Z,67.30
2019-04-30T10:21:34.289Z,65.20
2019-04-30T10:24:13.054Z,65.70
2019-04-30T10:26:41.371Z,67.20
2019-04-30T10:29:13.783Z,67.40
2019-04-30T10:31:45.965Z,66.70
2019-04-30T10:34:18.041Z,66.50
2019-04-30T10:36:50.883Z,67.10
2019-04-30T10:39:23.003Z,67.20
2019-04-30T10:41:55.173Z,65.70
2019-04-30T10:44:27.087Z,65.00
2019-04-30T10:46:59.406Z,64.50
2019-04-30T10:49:35.050Z,65.20
2019-04-30T10:52:09.958Z,65.00
2019-04-30T10:54:45.563Z,66.60
2019-04-30T10:57:24.036Z,66.40
2019-04-30T11:00:00.689Z,67.50
2019-04-30T11:02:33.129Z,67.70
2019-04-30T11:05:06.322Z,67.80
2019-04-30T11:07:43.640Z,68.90
2019-04-30T11:10:19.648Z,69.80
2019-04-30T11:12:52.122Z,69.00
2019-04-30T11:15:29.241Z,67.20
2019-04-30T11:18:02.429Z,66.80
2019-04-30T11:20:39.468Z,66.20
2019-04-30T11:23:14.700Z,67.00
2019-04-30T11:25:46.763Z,67.90
2019-04-30T11:28:25.312Z,67.70
2019-04-30T11:31:39.370Z,66.10
2019-04-30T11:34:16.123Z,66.20
2019-04-30T11:36:48.691Z,68.50
2019-04-30T11:39:23.804Z,69.70
2019-04-30T11:41:59.039Z,69.90
2019-04-30T11:44:35.270Z,71.50
2019-04-30T11:47:37.635Z,70.60
2019-04-30T11:50:13.773Z,69.30
2019-04-30T11:52:51.977Z,68.80
2019-04-30T11:55:29.173Z,68.50
2019-04-30T11:58:01.968Z,68.10
2019-04-30T12:00:36.911Z,68.20
2019-04-30T12:03:11.062Z,67.50
2019-04-30T12:05:42.707Z,68.20
2019-04-30T12:08:22.490Z,68.60
2019-04-30T12:11:10.021Z,69.20
2019-04-30T12:13:52.849Z,68.50
2019-04-30T12:16:24.661Z,67.00
2019-04-30T12:19:00.663Z,66.20
2019-04-30T12:21:34.187Z,64.40
2019-04-30T12:24:06.514Z,64.10
2019-04-30T12:26:38.998Z,63.10
2019-04-30T12:29:11.293Z,63.40
2019-04-30T12:31:43.505Z,64.10
2019-04-30T12:34:15.198Z,64.40
2019-04-30T12:36:47.347Z,63.10
2019-04-30T12:39:21.202Z,62.80
2019-04-30T12:41:53.677Z,63.00
2019-04-30T12:44:26.034Z,62.40
2019-04-30T12:46:59.091Z,63.30
2019-04-30T12:49:51.253Z,63.90
2019-04-30T12:52:49.482Z,64.20
2019-04-30T12:56:00.562Z,63.80
2019-04-30T12:58:36.002Z,63.40
2019-04-30T13:01:10.125Z,62.40
2019-04-30T13:03:55.749Z,62.80
2019-04-30T13:06:24.474Z,62.90
2019-04-30T13:09:00.423Z,64.10
2019-04-30T13:11:32.613Z,63.70
2019-04-30T13:14:05.815Z,62.30
2019-04-30T13:16:39.306Z,61.70
2019-04-30T13:19:12.563Z,61.20
2019-04-30T13:21:45.209Z,61.00
2019-04-30T13:24:16.659Z,60.80
2019-04-30T13:26:49.482Z,60.00
2019-04-30T13:29:30.486Z,60.90
2019-04-30T13:32:04.480Z,61.30
2019-04-30T13:34:44.620Z,60.40
2019-04-30T13:37:19.205Z,60.40
2019-04-30T13:40:15.945Z,60.60
2019-04-30T13:42:51.766Z,60.30
2019-04-30T13:45:24.156Z,61.20
2019-04-30T13:48:00.514Z,60.70
2019-04-30T13:50:39.489Z,60.50
2019-04-30T13:53:13.552Z,60.40
2019-04-30T13:55:46.588Z,60.40
2019-04-30T13:58:20.677Z,60.70
2019-04-30T14:00:53.180Z,60.40
2019-04-30T14:03:39.079Z,61.10
2019-04-30T14:06:14.592Z,61.10
2019-04-30T14:08:49.802Z,61.00
2019-04-30T14:11:24.063Z,61.00
2019-04-30T14:13:57.766Z,60.80
2019-04-30T14:16:33.591Z,60.90
2019-04-30T14:19:08.592Z,61.20
2019-04-30T14:21:44.581Z,61.00
2019-04-30T14:24:20.043Z,60.40
2019-04-30T14:26:54.860Z,59.70
2019-04-30T14:29:29.844Z,60.40
2019-04-30T14:32:02.481Z,60.80
2019-04-30T14:34:39.359Z,61.30
2019-04-30T14:37:13.906Z,62.30
2019-04-30T14:39:47.975Z,61.80
2019-04-30T14:42:21.525Z,61.70
2019-04-30T14:45:05.347Z,61.20
2019-04-30T14:48:02.324Z,62.40
2019-04-30T14:50:35.219Z,63.90
2019-04-30T14:53:13.804Z,64.50
2019-04-30T14:56:08.709Z,64.50
2019-04-30T14:59:00.979Z,64.40
2019-04-30T15:01:49.001Z,63.90
2019-04-30T15:04:21.255Z,64.80
2019-04-30T15:06:59.116Z,64.10
2019-04-30T15:09:33.867Z,64.40
2019-04-30T15:12:07.437Z,65.10
2019-04-30T15:14:41.052Z,65.00
2019-04-30T15:17:13.970Z,65.40
2019-04-30T15:19:49.777Z,65.50
2019-04-30T15:22:24.052Z,65.30
2019-04-30T15:24:59.478Z,66.00
2019-04-30T15:27:34.483Z,66.10
2019-04-30T15:30:09.660Z,65.40
2019-04-30T15:32:43.612Z,64.80
2019-04-30T15:35:16.757Z,64.40
2019-04-30T15:37:50.894Z,63.90
2019-04-30T15:40:24.006Z,64.00
2019-04-30T15:42:58.868Z,63.40
2019-04-30T15:45:31.462Z,63.90
2019-04-30T15:48:04.434Z,64.90
2019-04-30T15:50:39.250Z,65.60
2019-04-30T15:53:14.747Z,66.00
2019-04-30T15:55:49.612Z,65.90
2019-04-30T15:58:25.506Z,66.10
2019-04-30T16:00:59.455Z,66.20
2019-04-30T16:03:35.999Z,67.20
2019-04-30T16:06:10.365Z,67.60
2019-04-30T16:08:49.795Z,67.50
2019-04-30T16:11:44.614Z,67.40
2019-04-30T16:14:29.753Z,67.40
2019-04-30T16:17:12.015Z,67.60
2019-04-30T16:19:44.799Z,67.10
2019-04-30T16:22:20.616Z,66.60
2019-04-30T16:24:54.666Z,66.80
2019-04-30T16:27:27.332Z,66.40
2019-04-30T16:30:00.601Z,66.20
2019-04-30T16:32:34.382Z,67.60
2019-04-30T16:35:09.312Z,68.20
2019-04-30T16:37:44.320Z,67.90
2019-04-30T16:40:22.644Z,68.20
2019-04-30T16:42:57.166Z,69.00
2019-04-30T16:45:33.660Z,68.70
2019-04-30T16:48:07.232Z,69.50
2019-04-30T16:50:40.550Z,69.30
2019-04-30T16:53:14.364Z,70.00
2019-04-30T16:55:50.554Z,70.50
2019-04-30T16:59:12.989Z,70.50
2019-04-30T17:01:57.174Z,70.30
2019-04-30T17:04:34.242Z,70.40
2019-04-30T17:07:19.059Z,70.90
2019-04-30T17:10:01.185Z,70.80
2019-04-30T17:13:03.233Z,70.50
2019-04-30T17:15:41.971Z,71.10
2019-04-30T17:18:20.759Z,72.30
2019-04-30T17:21:03.793Z,73.00
2019-04-30T17:23:45.254Z,72.90
2019-04-30T17:26:25.117Z,74.10
2019-04-30T17:29:03.793Z,76.00
2019-04-30T17:31:48.463Z,77.00
2019-04-30T17:34:30.906Z,77.40
2019-04-30T17:37:06.466Z,78.10
2019-04-30T17:39:41.942Z,78.80
2019-04-30T17:42:17.075Z,79.30
2019-04-30T17:44:56.817Z,80.00
2019-04-30T17:47:29.030Z,80.30
2019-04-30T17:50:02.845Z,80.40
2019-04-30T17:52:37.327Z,80.50
2019-04-30T17:55:13.776Z,80.50
2019-04-30T17:57:48.685Z,80.90
2019-04-30T18:00:23.839Z,81.50
2019-04-30T18:02:57.874Z,81.70
2019-04-30T18:05:31.755Z,82.00
2019-04-30T18:08:08.073Z,82.20
2019-04-30T18:10:44.464Z,82.30
2019-04-30T18:13:19.072Z,82.40
2019-04-30T18:15:54.205Z,82.70
2019-04-30T18:18:38.592Z,82.80
2019-04-30T18:21:28.318Z,83.30
2019-04-30T18:24:53.113Z,83.90
2019-04-30T18:27:45.361Z,84.40
2019-04-30T18:30:21.116Z,85.10
2019-04-30T18:32:54.989Z,85.40
2019-04-30T18:35:29.762Z,85.70
2019-04-30T18:38:04.728Z,86.10
2019-04-30T18:40:43.403Z,86.50
2019-04-30T18:43:20.403Z,86.70
2019-04-30T18:45:54.476Z,87.10
2019-04-30T18:48:29.447Z,87.30
2019-04-30T18:51:18.980Z,87.60
2019-04-30T18:53:40.584Z,87.80
2019-04-30T18:56:14.891Z,88.10
2019-04-30T18:58:49.793Z,88.20
2019-04-30T19:01:23.996Z,88.20
2019-04-30T19:03:58.477Z,88.40
2019-04-30T19:06:33.674Z,88.70
2019-04-30T19:09:31.718Z,88.80
2019-04-30T19:12:29.154Z,89.20
2019-04-30T19:15:21.526Z,89.20
2019-04-30T19:18:15.241Z,89.50
2019-04-30T19:20:52.022Z,89.70
2019-04-30T19:23:29.019Z,90.00
2019-04-30T19:26:02.584Z,90.30
2019-04-30T19:28:36.393Z,90.70
2019-04-30T19:31:11.737Z,91.10
2019-04-30T19:34:04.618Z,91.40
2019-04-30T19:36:40.673Z,91.50
2019-04-30T19:39:19.520Z,91.60
2019-04-30T19:41:54.180Z,91.70
2019-04-30T19:44:29.379Z,91.90
2019-04-30T19:47:04.176Z,92.00
2019-04-30T19:49:55.593Z,92.50
2019-04-30T19:52:30.293Z,92.90
2019-04-30T19:55:22.431Z,93.10
2019-04-30T19:57:59.711Z,93.50
2019-04-30T20:00:33.089Z,93.80
2019-04-30T20:03:09.644Z,94.10
2019-04-30T20:05:43.965Z,94.30
2019-04-30T20:08:19.873Z,94.50
2019-04-30T20:10:54.978Z,95.00
2019-04-30T20:13:37.004Z,95.50
2019-04-30T20:16:09.623Z,95.80
2019-04-30T20:18:44.621Z,95.90
2019-04-30T20:21:28.324Z,95.70
2019-04-30T20:23:59.109Z,95.70
2019-04-30T20:26:35.090Z,96.00
2019-04-30T20:29:10.082Z,96.60
2019-04-30T20:31:48.752Z,96.90
2019-04-30T20:34:24.344Z,97.00
2019-04-30T20:37:00.326Z,97.10
2019-04-30T20:39:54.721Z,96.90
2019-04-30T20:42:36.126Z,97.10
2019-04-30T20:45:16.495Z,96.90
2019-04-30T20:47:52.130Z,96.70
2019-04-30T20:50:33.922Z,96.70
2019-04-30T20:53:11.816Z,96.40
2019-04-30T20:55:46.717Z,96.50
2019-04-30T20:58:22.885Z,96.30
2019-04-30T21:01:04.090Z,96.50
2019-04-30T21:03:35.308Z,97.00
2019-04-30T21:06:10.171Z,97.10
2019-04-30T21:08:44.541Z,97.30
2019-04-30T21:11:20.485Z,97.40
2019-04-30T21:13:54.736Z,97.50
2019-04-30T21:16:29.339Z,97.40
2019-04-30T21:19:05.071Z,98.00
2019-04-30T21:21:39.546Z,98.10
2019-04-30T21:24:15.891Z,98.20
2019-04-30T21:26:52.244Z,98.60
2019-04-30T21:29:29.488Z,98.60
2019-04-30T21:32:29.045Z,98.90
2019-04-30T21:35:24.739Z,99.10
2019-04-30T21:38:01.803Z,99.90
2019-04-30T21:40:39.316Z,99.90
2019-04-30T21:43:13.750Z,99.90
2019-04-30T21:45:49.370Z,99.90
2019-04-30T21:48:28.760Z,99.90
2019-04-30T21:51:05.728Z,99.60
2019-04-30T21:53:40.811Z,99.90
2019-04-30T21:56:23.650Z,99.80
2019-04-30T21:59:03.547Z,99.60
2019-04-30T22:01:38.948Z,99.50
2019-04-30T22:04:15.607Z,99.10
2019-04-30T22:06:50.083Z,99.00
2019-04-30T22:09:25.019Z,98.80
2019-04-30T22:12:00.207Z,99.30
2019-04-30T22:14:36.250Z,99.90
2019-04-30T22:17:11.105Z,99.90
2019-04-30T22:19:49.127Z,99.90
2019-04-30T22:22:25.315Z,99.90
2019-04-30T22:25:05.092Z,99.90
2019-04-30T22:27:41.900Z,99.90
2019-04-30T22:30:17.275Z,99.90
2019-04-30T22:32:51.450Z,99.90
2019-04-30T22:35:45.431Z,99.90
2019-04-30T22:38:23.823Z,99.90
2019-04-30T22:40:58.991Z,99.90
2019-04-30T22:43:35.571Z,99.90
2019-04-30T22:46:15.382Z,99.90
2019-04-30T22:48:50.956Z,99.90
2019-04-30T22:51:27.037Z,99.90
2019-04-30T22:54:02.378Z,99.90
2019-04-30T22:56:37.968Z,99.90
2019-04-30T22:59:13.988Z,99.90
2019-04-30T23:02:08.452Z,99.90
2019-04-30T23:04:45.788Z,99.90
2019-04-30T23:07:20.120Z,99.90
2019-04-30T23:09:56.639Z,99.90
2019-04-30T23:12:30.673Z,99.90
2019-04-30T23:15:05.096Z,99.90
2019-04-30T23:17:40.123Z,99.90
2019-04-30T23:20:13.724Z,99.90
2019-04-30T23:22:47.682Z,99.90
2019-04-30T23:25:26.411Z,99.90
2019-04-30T23:28:01.510Z,99.90
2019-04-30T23:30:35.829Z,99.90
2019-04-30T23:33:11.079Z,99.90
2019-04-30T23:35:48.522Z,99.90
2019-04-30T23:38:23.354Z,99.90
2019-04-30T23:40:58.769Z,99.90
2019-04-30T23:43:33.602Z,99.90
2019-04-30T23:46:08.738Z,99.90
2019-04-30T23:48:45.063Z,99.90
2019-04-30T23:51:20.634Z,99.90
2019-04-30T23:53:55.553Z,99.90
2019-04-30T23:56:30.373Z,99.90
2019-04-30T23:59:06.615Z,99.90
